Time;durP1;ratioP1;P1;durP2;ratioP2;P2;SDS_P1;SDS_P2;PMS_P1;PMS_P2;Temp;Humidity;BMP_temperature;BMP_pressure;BME280_temperature;BME280_humidity;BME280_pressure;Samples;Min_cycle;Max_cycle;Signal;HPM_P1;HPM_P2
2022/11/22 00:02:15;;;;;;;113.10;49.37;;;2.00;99.90;;;;;;4374647;28;660514;-65
2022/11/22 00:05:03;;;;;;;122.13;51.07;;;1.90;99.90;;;;;;4392332;28;661309;-64
2022/11/22 00:07:51;;;;;;;122.37;49.77;;;1.80;99.90;;;;;;4377652;28;660877;-66
2022/11/22 00:10:38;;;;;;;151.00;51.17;;;1.80;99.90;;;;;;4392985;28;660980;-65
2022/11/22 00:13:26;;;;;;;180.80;49.47;;;1.80;99.90;;;;;;4374444;28;660821;-65
2022/11/22 00:16:13;;;;;;;223.07;44.57;;;1.70;99.90;;;;;;4397315;28;661739;-64
2022/11/22 00:19:00;;;;;;;426.07;48.07;;;1.70;99.90;;;;;;4384940;28;660522;-66
2022/11/22 00:21:47;;;;;;;198.60;43.93;;;1.70;99.90;;;;;;4397236;28;660213;-64
2022/11/22 00:24:36;;;;;;;294.87;43.70;;;1.60;99.90;;;;;;4393158;28;660700;-64
2022/11/22 00:27:23;;;;;;;302.23;45.03;;;1.50;99.90;;;;;;4374459;28;661594;-64
2022/11/22 00:30:10;;;;;;;391.80;45.50;;;1.30;99.90;;;;;;4383337;28;661071;-66
2022/11/22 00:32:57;;;;;;;413.17;46.30;;;1.20;99.90;;;;;;4393282;28;661680;-65
2022/11/22 00:35:45;;;;;;;187.30;42.00;;;1.10;99.90;;;;;;4389050;28;660288;-66
2022/11/22 00:38:32;;;;;;;159.73;40.03;;;1.00;99.90;;;;;;4397384;28;661738;-65
2022/11/22 00:41:21;;;;;;;118.73;38.70;;;0.80;99.90;;;;;;4393068;28;660688;-64
2022/11/22 00:44:08;;;;;;;216.87;40.33;;;0.80;99.90;;;;;;4363630;28;661890;-64
2022/11/22 00:46:56;;;;;;;266.42;42.40;;;0.70;99.90;;;;;;4378608;28;660720;-66
2022/11/22 00:49:43;;;;;;;277.07;45.40;;;0.60;99.90;;;;;;4395952;28;661773;-64
2022/11/22 00:52:30;;;;;;;335.70;45.43;;;0.50;99.90;;;;;;4382395;28;660367;-66
2022/11/22 00:55:17;;;;;;;413.23;43.72;;;0.40;99.90;;;;;;4395900;28;661457;-64
2022/11/22 00:58:06;;;;;;;351.70;44.43;;;0.30;99.90;;;;;;4396648;28;660921;-64
2022/11/22 01:00:53;;;;;;;440.70;45.20;;;0.20;99.90;;;;;;4557822;28;661663;-65
2022/11/22 01:03:40;;;;;;;482.00;45.87;;;0.10;99.90;;;;;;4699329;28;537373;-66
2022/11/22 01:06:27;;;;;;;379.55;44.88;;;-0.10;99.90;;;;;;4414645;28;661059;-64
2022/11/22 01:09:17;;;;;;;660.60;46.87;;;-0.10;99.90;;;;;;4408967;28;661608;-64
2022/11/22 01:12:04;;;;;;;326.87;44.20;;;-0.30;99.90;;;;;;4385880;28;662308;-64
2022/11/22 01:14:53;;;;;;;143.87;36.13;;;-0.40;99.90;;;;;;4389957;28;661950;-64
2022/11/22 01:17:40;;;;;;;621.47;45.10;;;-0.50;99.90;;;;;;4390351;28;662558;-66
2022/11/22 01:20:29;;;;;;;137.15;36.50;;;-0.70;99.90;;;;;;4413018;28;661332;-64
2022/11/22 01:23:16;;;;;;;98.70;35.20;;;-0.70;99.90;;;;;;4386158;28;661949;-64
2022/11/22 01:26:03;;;;;;;92.47;35.43;;;-0.80;99.90;;;;;;4410305;28;661876;-64
2022/11/22 01:28:50;;;;;;;133.63;44.17;;;-0.80;99.90;;;;;;4391212;28;660647;-64
2022/11/22 01:31:39;;;;;;;105.27;38.10;;;-0.80;99.90;;;;;;4408917;28;663639;-64
2022/11/22 01:34:26;;;;;;;112.57;40.67;;;-0.90;99.90;;;;;;4390983;28;661704;-64
2022/11/22 01:37:14;;;;;;;86.03;32.37;;;-0.90;99.90;;;;;;4412079;28;662209;-64
2022/11/22 01:40:01;;;;;;;74.00;30.77;;;-0.90;99.90;;;;;;4393450;28;660585;-64
2022/11/22 01:42:50;;;;;;;76.07;32.10;;;-0.90;99.90;;;;;;4415509;28;661651;-64
2022/11/22 01:45:48;;;;;;;87.67;35.33;;;-0.90;99.90;;;;;;4393593;28;661586;-64
2022/11/22 01:48:44;;;;;;;105.83;42.10;;;-1.00;99.90;;;;;;4371464;28;661259;-66
2022/11/22 01:51:34;;;;;;;92.20;37.43;;;-1.00;99.90;;;;;;4364689;28;662653;-63
2022/11/22 01:54:22;;;;;;;90.37;37.03;;;-1.00;99.90;;;;;;4391759;28;661366;-65
2022/11/22 01:57:12;;;;;;;80.37;34.60;;;-1.00;99.90;;;;;;4410862;28;661264;-64
2022/11/22 02:00:00;;;;;;;62.17;27.53;;;-1.10;99.90;;;;;;4371748;28;661212;-63
2022/11/22 02:02:50;;;;;;;66.33;27.47;;;-1.10;99.90;;;;;;4375289;28;661073;-63
2022/11/22 02:05:38;;;;;;;55.00;25.37;;;-1.20;99.90;;;;;;4375776;28;662004;-63
2022/11/22 02:08:28;;;;;;;61.23;27.47;;;-1.10;99.90;;;;;;4375464;28;661012;-64
2022/11/22 02:11:15;;;;;;;86.73;31.87;;;-1.20;99.90;;;;;;4375289;28;660808;-64
2022/11/22 02:14:03;;;;;;;91.93;32.97;;;-1.30;99.90;;;;;;4394269;28;662662;-64
2022/11/22 02:16:50;;;;;;;65.63;28.87;;;-1.30;99.90;;;;;;4387260;28;660569;-65
2022/11/22 02:19:40;;;;;;;70.70;30.45;;;-1.20;99.90;;;;;;4398011;28;661335;-63
2022/11/22 02:22:31;;;;;;;70.80;29.23;;;-1.10;99.90;;;;;;4375306;28;662181;-63
2022/11/22 02:25:20;;;;;;;69.57;29.23;;;-1.10;99.90;;;;;;4370948;28;661705;-64
2022/11/22 02:28:08;;;;;;;65.47;29.37;;;-1.00;99.90;;;;;;4371657;28;662134;-63
2022/11/22 02:30:56;;;;;;;66.70;28.53;;;-0.90;99.90;;;;;;4368582;28;661322;-64
2022/11/22 02:33:43;;;;;;;54.93;27.17;;;-1.00;99.90;;;;;;4397888;28;661412;-64
2022/11/22 02:36:31;;;;;;;64.33;28.53;;;-1.00;99.90;;;;;;4385337;28;660592;-65
2022/11/22 02:39:19;;;;;;;94.07;32.93;;;-1.00;99.90;;;;;;4393706;28;661627;-64
2022/11/22 02:42:06;;;;;;;59.03;26.10;;;-1.00;99.90;;;;;;4375657;28;660784;-63
2022/11/22 02:44:55;;;;;;;73.70;29.70;;;-1.00;99.90;;;;;;4411265;28;661823;-63
2022/11/22 02:47:42;;;;;;;78.10;29.57;;;-1.10;99.90;;;;;;4387900;28;662330;-63
2022/11/22 02:50:29;;;;;;;89.17;31.23;;;-1.00;99.90;;;;;;4411085;28;661233;-64
2022/11/22 02:53:16;;;;;;;116.30;37.30;;;-1.00;99.90;;;;;;4391944;28;660740;-63
2022/11/22 02:56:03;;;;;;;87.00;33.45;;;-0.90;99.90;;;;;;4409630;28;663065;-63
2022/11/22 02:58:50;;;;;;;72.50;29.93;;;-0.90;99.90;;;;;;4388715;28;660809;-65
2022/11/22 03:01:39;;;;;;;62.03;28.23;;;-0.80;99.90;;;;;;4411613;28;661701;-63
2022/11/22 03:04:26;;;;;;;74.20;29.80;;;-0.70;99.90;;;;;;4389714;28;660697;-64
2022/11/22 03:07:13;;;;;;;63.87;25.47;;;-0.70;99.90;;;;;;4414578;28;661921;-64
2022/11/22 03:10:00;;;;;;;67.80;29.23;;;-0.70;99.90;;;;;;4396265;28;660768;-65
2022/11/22 03:12:47;;;;;;;56.72;26.05;;;-0.60;99.90;;;;;;4415565;28;660289;-63
2022/11/22 03:15:34;;;;;;;58.13;25.27;;;-0.60;99.90;;;;;;4411363;28;661164;-64
2022/11/22 03:18:23;;;;;;;61.80;26.77;;;-0.60;99.90;;;;;;4388801;28;661504;-63
2022/11/22 03:21:10;;;;;;;62.50;28.07;;;-0.60;99.90;;;;;;4402693;28;660889;-65
2022/11/22 03:23:57;;;;;;;72.33;30.57;;;-0.60;99.90;;;;;;4411088;28;661516;-63
2022/11/22 03:26:47;;;;;;;53.93;25.73;;;-0.60;99.90;;;;;;4410914;28;660393;-63
2022/11/22 03:29:34;;;;;;;64.90;28.30;;;-0.60;99.90;;;;;;4388107;28;660919;-63
2022/11/22 03:32:21;;;;;;;69.37;29.13;;;-0.60;99.90;;;;;;4392333;28;660853;-64
2022/11/22 03:35:09;;;;;;;70.13;30.17;;;-0.70;99.90;;;;;;4413217;28;661020;-63
2022/11/22 03:37:57;;;;;;;62.27;28.23;;;-0.60;99.90;;;;;;4391557;28;661534;-64
2022/11/22 03:40:46;;;;;;;61.30;28.37;;;-0.60;99.90;;;;;;4410946;28;661260;-64
2022/11/22 03:43:33;;;;;;;63.00;27.53;;;-0.60;99.90;;;;;;4387939;28;661845;-64
2022/11/22 03:46:20;;;;;;;66.25;28.13;;;-0.50;99.90;;;;;;4396946;28;661167;-66
2022/11/22 03:49:07;;;;;;;62.20;28.97;;;-0.50;99.90;;;;;;4415127;28;661100;-63
2022/11/22 03:51:57;;;;;;;62.90;27.53;;;-0.50;99.90;;;;;;4390617;28;661237;-64
2022/11/22 03:54:44;;;;;;;67.53;28.70;;;-0.20;99.90;;;;;;4409823;28;660950;-64
2022/11/22 03:57:31;;;;;;;61.03;27.90;;;-0.20;99.90;;;;;;4388099;28;660877;-64
2022/11/22 04:00:18;;;;;;;70.20;30.63;;;-0.30;99.90;;;;;;4405662;28;661476;-64
2022/11/22 04:03:05;;;;;;;76.57;31.57;;;-0.40;99.90;;;;;;4390922;28;660551;-64
2022/11/22 04:05:52;;;;;;;70.43;32.70;;;-0.40;99.90;;;;;;4409683;28;662795;-64
2022/11/22 04:08:41;;;;;;;69.77;30.67;;;-0.40;99.90;;;;;;4407335;28;661128;-66
2022/11/22 04:11:28;;;;;;;74.63;30.23;;;-0.30;99.90;;;;;;4409532;28;661027;-63
2022/11/22 04:23:27;;;;;;;55.47;25.23;;;-0.30;99.90;;;;;;4363785;28;661954;-63
2022/11/22 04:26:14;;;;;;;56.17;26.17;;;-0.40;99.90;;;;;;4405097;28;660532;-64
2022/11/22 04:29:02;;;;;;;55.60;25.83;;;-0.40;99.90;;;;;;4384534;28;660834;-64
2022/11/22 04:34:54;;;;;;;56.10;25.73;;;-0.50;99.90;;;;;;4386322;28;660489;-64
2022/11/22 04:37:41;;;;;;;57.23;26.40;;;-0.50;99.90;;;;;;4390256;28;660654;-64
2022/11/22 04:40:28;;;;;;;56.35;25.80;;;-0.50;99.90;;;;;;4409712;28;662161;-64
2022/11/22 04:46:24;;;;;;;61.73;25.83;;;-0.50;99.90;;;;;;4387430;28;660936;-64
2022/11/22 04:49:11;;;;;;;55.33;24.17;;;-0.60;99.90;;;;;;4391332;28;661130;-64
2022/11/22 04:55:02;;;;;;;50.03;23.67;;;-0.60;99.90;;;;;;4364566;28;661590;-64
2022/11/22 04:57:50;;;;;;;56.83;25.07;;;-0.60;99.90;;;;;;4407618;28;661444;-65
2022/11/22 05:00:39;;;;;;;55.47;24.27;;;-0.70;99.90;;;;;;4528079;28;661366;-64
2022/11/22 05:03:26;;;;;;;48.53;24.03;;;-0.70;99.90;;;;;;4748739;28;537430;-64
2022/11/22 05:06:13;;;;;;;52.47;24.73;;;-0.70;99.90;;;;;;4412956;28;661897;-64
2022/11/22 05:09:00;;;;;;;49.73;24.80;;;-0.80;99.90;;;;;;4392119;28;660605;-66
2022/11/22 05:11:47;;;;;;;55.57;26.17;;;-0.80;99.90;;;;;;4417764;28;661100;-64
2022/11/22 05:14:34;;;;;;;50.10;23.53;;;-0.80;99.90;;;;;;4413536;28;660574;-64
2022/11/22 05:17:23;;;;;;;48.97;23.47;;;-0.80;99.90;;;;;;4394493;28;660701;-63
2022/11/22 05:20:10;;;;;;;53.77;23.63;;;-0.80;99.90;;;;;;4396998;28;660721;-66
2022/11/22 05:26:02;;;;;;;54.90;26.37;;;-0.90;99.90;;;;;;4367512;28;660906;-64
2022/11/22 05:28:50;;;;;;;62.70;25.10;;;-1.00;99.90;;;;;;4413265;28;660450;-65
2022/11/22 05:31:38;;;;;;;49.80;24.07;;;-0.90;99.90;;;;;;4390441;28;661519;-64
2022/11/22 05:34:26;;;;;;;47.33;22.05;;;-0.90;99.90;;;;;;4398682;28;661037;-66
2022/11/22 05:37:14;;;;;;;49.30;22.40;;;-0.90;99.90;;;;;;4413311;28;661689;-64
2022/11/22 05:40:01;;;;;;;46.03;21.40;;;-0.90;99.90;;;;;;4393926;28;660570;-64
2022/11/22 05:42:48;;;;;;;43.37;19.87;;;-0.90;99.90;;;;;;4415684;28;662288;-64
2022/11/22 05:45:35;;;;;;;53.65;21.48;;;-0.90;99.90;;;;;;4399071;28;660762;-65
2022/11/22 05:48:22;;;;;;;51.10;20.47;;;-0.90;99.90;;;;;;4417212;28;661404;-64
2022/11/22 05:51:11;;;;;;;58.77;21.10;;;-0.90;99.90;;;;;;4412983;28;660566;-64
2022/11/22 05:53:58;;;;;;;54.20;21.97;;;-0.80;99.90;;;;;;4382250;28;661149;-64
2022/11/22 05:56:47;;;;;;;52.13;19.93;;;-0.90;99.90;;;;;;4392728;28;661258;-64
2022/11/22 05:59:34;;;;;;;49.77;20.87;;;-0.90;99.90;;;;;;4393389;28;660908;-64
2022/11/22 06:02:21;;;;;;;49.90;20.90;;;-0.90;99.90;;;;;;4374970;28;660556;-64
2022/11/22 06:05:08;;;;;;;51.90;20.80;;;-0.90;99.90;;;;;;4397687;28;660918;-64
2022/11/22 06:08:00;;;;;;;60.93;23.90;;;-0.90;99.90;;;;;;4369386;28;660724;-64
2022/11/22 06:10:47;;;;;;;51.90;22.10;;;-0.80;99.90;;;;;;4372220;28;662623;-64
2022/11/22 06:13:35;;;;;;;57.63;22.17;;;-0.80;99.90;;;;;;4395044;28;660661;-64
2022/11/22 06:16:22;;;;;;;55.73;20.87;;;-0.80;99.90;;;;;;4372273;28;662259;-64
2022/11/22 06:19:09;;;;;;;56.23;21.37;;;-0.80;99.90;;;;;;4394922;28;660690;-64
2022/11/22 06:21:56;;;;;;;52.30;19.90;;;-0.80;99.90;;;;;;4371234;28;660711;-64
2022/11/22 06:24:45;;;;;;;46.90;19.73;;;-0.70;99.90;;;;;;4394448;28;661209;-64
2022/11/22 06:27:32;;;;;;;56.00;21.93;;;-0.70;99.90;;;;;;4371238;28;661892;-64
2022/11/22 06:30:19;;;;;;;61.03;22.67;;;-0.70;99.90;;;;;;4394870;28;660390;-64
2022/11/22 06:33:06;;;;;;;52.83;21.43;;;-0.70;99.90;;;;;;4375956;28;660674;-64
2022/11/22 06:35:53;;;;;;;51.03;21.80;;;-0.70;99.90;;;;;;4394662;28;661844;-64
2022/11/22 06:38:40;;;;;;;44.22;19.83;;;-0.70;99.90;;;;;;4376077;28;662186;-66
2022/11/22 06:41:33;;;;;;;46.60;20.37;;;-0.70;99.90;;;;;;4394636;28;660954;-64
2022/11/22 06:44:20;;;;;;;50.83;22.60;;;-0.60;99.90;;;;;;4336030;28;661042;-65
2022/11/22 06:47:09;;;;;;;48.33;22.23;;;-0.50;99.90;;;;;;4377433;28;662278;-64
2022/11/22 06:49:56;;;;;;;43.23;20.47;;;-0.40;99.90;;;;;;4354760;28;661637;-64
2022/11/22 06:52:43;;;;;;;37.08;16.67;;;-0.30;99.90;;;;;;4375548;28;661457;-64
2022/11/22 06:55:30;;;;;;;37.38;16.83;;;-0.10;99.90;;;;;;4360032;28;660807;-65
2022/11/22 06:58:19;;;;;;;33.60;14.70;;;0.00;99.90;;;;;;4397601;28;661781;-64
2022/11/22 07:01:06;;;;;;;28.20;13.47;;;0.00;99.90;;;;;;4620530;28;660011;-64
2022/11/22 07:03:56;;;;;;;29.17;12.83;;;0.20;99.90;;;;;;4655983;28;536324;-64
2022/11/22 07:06:44;;;;;;;28.60;12.43;;;0.20;99.90;;;;;;4389093;28;660562;-64
2022/11/22 07:09:31;;;;;;;26.10;11.87;;;0.30;99.90;;;;;;4392698;28;659779;-64
2022/11/22 07:12:18;;;;;;;25.37;12.80;;;0.40;99.90;;;;;;4415698;28;660543;-64
2022/11/22 07:15:07;;;;;;;29.07;13.37;;;0.50;99.90;;;;;;4401596;28;659555;-66
2022/11/22 07:17:54;;;;;;;55.20;17.37;;;0.60;99.90;;;;;;4411871;28;659254;-64
2022/11/22 07:20:41;;;;;;;44.43;16.03;;;0.70;99.90;;;;;;4392698;28;660885;-64
2022/11/22 07:23:29;;;;;;;112.53;24.40;;;0.70;99.90;;;;;;4411388;28;659300;-64
2022/11/22 07:26:16;;;;;;;43.20;15.70;;;0.80;99.90;;;;;;4391355;28;661099;-65
2022/11/22 07:29:03;;;;;;;49.53;18.13;;;0.90;99.90;;;;;;4405910;28;660350;-64
2022/11/22 07:31:52;;;;;;;35.37;15.33;;;0.90;99.90;;;;;;4392038;28;659547;-65
2022/11/22 07:34:39;;;;;;;239.40;22.05;;;1.00;99.90;;;;;;4411326;28;660144;-65
2022/11/22 07:37:26;;;;;;;28.50;14.52;;;1.10;99.90;;;;;;4390202;28;661562;-65
2022/11/22 07:40:13;;;;;;;34.93;16.83;;;1.20;99.90;;;;;;4406872;28;660691;-64
2022/11/22 07:43:00;;;;;;;47.17;19.23;;;1.30;99.90;;;;;;4386795;28;660181;-65
2022/11/22 07:45:47;;;;;;;34.17;16.00;;;1.60;99.90;;;;;;4412473;28;660679;-65
2022/11/22 07:48:36;;;;;;;30.53;14.33;;;1.90;99.90;;;;;;4411595;28;659674;-66
2022/11/22 07:51:25;;;;;;;33.27;15.80;;;2.10;99.90;;;;;;4411964;28;659431;-65
2022/11/22 07:54:12;;;;;;;30.27;14.67;;;2.20;99.90;;;;;;4383498;28;660543;-65
2022/11/22 07:56:59;;;;;;;45.03;18.57;;;2.30;99.90;;;;;;4411837;28;659376;-65
2022/11/22 07:59:46;;;;;;;34.60;16.83;;;2.40;99.90;;;;;;4372264;28;659664;-65
2022/11/22 08:02:33;;;;;;;35.37;17.53;;;2.60;99.90;;;;;;4394571;28;660600;-65
2022/11/22 08:05:22;;;;;;;35.23;18.43;;;2.80;99.90;;;;;;4375772;28;660075;-66
2022/11/22 08:08:09;;;;;;;33.50;17.77;;;3.10;99.90;;;;;;4388630;28;660251;-65
2022/11/22 08:10:56;;;;;;;33.13;17.57;;;3.10;99.90;;;;;;4375707;28;659617;-66
2022/11/22 08:13:43;;;;;;;32.03;16.13;;;3.50;99.90;;;;;;4394360;28;660467;-66
2022/11/22 08:16:30;;;;;;;44.90;17.13;;;3.90;99.90;;;;;;4375677;28;659818;-66
2022/11/22 08:19:18;;;;;;;28.00;13.77;;;4.40;99.90;;;;;;4394015;28;660934;-66
2022/11/22 08:22:06;;;;;;;23.93;12.27;;;4.90;99.90;;;;;;4369788;28;659737;-67
2022/11/22 08:24:53;;;;;;;22.90;12.10;;;5.30;99.90;;;;;;4394241;28;660152;-66
2022/11/22 08:27:41;;;;;;;21.60;11.27;;;5.80;99.90;;;;;;4375485;28;659936;-66
2022/11/22 08:30:28;;;;;;;20.85;9.90;;;6.10;99.90;;;;;;4395412;28;661147;-66
2022/11/22 08:33:15;;;;;;;24.47;11.13;;;6.50;99.90;;;;;;4381566;28;658828;-67
2022/11/22 08:36:02;;;;;;;19.00;9.40;;;6.80;99.90;;;;;;4398631;28;659487;-66
2022/11/22 08:38:51;;;;;;;37.73;12.87;;;6.80;99.90;;;;;;4395082;28;658874;-66
2022/11/22 08:41:38;;;;;;;18.73;9.97;;;7.00;99.90;;;;;;4371154;28;660295;-66
2022/11/22 08:44:25;;;;;;;24.20;9.63;;;7.20;99.90;;;;;;4369435;28;658731;-67
2022/11/22 08:47:12;;;;;;;14.43;7.93;;;7.30;99.90;;;;;;4379609;28;659246;-66
2022/11/22 08:49:59;;;;;;;30.33;11.73;;;7.60;99.90;;;;;;4374751;28;658721;-65
2022/11/22 08:52:46;;;;;;;19.00;9.50;;;7.90;99.90;;;;;;4357119;28;660571;-65
2022/11/22 08:55:35;;;;;;;14.17;8.10;;;8.20;99.90;;;;;;4384526;28;659232;-65
2022/11/22 08:58:22;;;;;;;20.63;9.47;;;8.50;99.90;;;;;;4367016;28;659919;-65
2022/11/22 09:01:10;;;;;;;20.83;10.40;;;8.80;99.90;;;;;;4624320;28;658418;-65
2022/11/22 09:03:57;;;;;;;18.77;10.90;;;9.20;99.90;;;;;;4619675;28;536283;-65
2022/11/22 09:06:44;;;;;;;17.93;8.97;;;9.60;98.60;;;;;;4397165;28;660598;-65
2022/11/22 09:09:32;;;;;;;19.77;9.97;;;10.20;95.70;;;;;;4379623;28;658438;-65
2022/11/22 09:12:21;;;;;;;15.60;8.73;;;10.70;93.90;;;;;;4397318;28;660037;-66
2022/11/22 09:15:08;;;;;;;18.57;8.93;;;10.70;91.10;;;;;;4374540;28;660623;-65
2022/11/22 09:18:00;;;;;;;23.77;10.00;;;10.80;90.00;;;;;;4378718;28;659502;-66
2022/11/22 09:20:47;;;;;;;18.10;9.17;;;11.30;90.00;;;;;;4373071;28;661335;-65
2022/11/22 09:23:35;;;;;;;12.57;7.50;;;11.50;85.50;;;;;;4397129;28;659295;-66
2022/11/22 09:26:24;;;;;;;12.73;7.23;;;12.00;83.70;;;;;;4401064;28;659704;-65
2022/11/22 09:29:13;;;;;;;13.33;7.40;;;12.40;77.70;;;;;;4377102;28;660577;-65
2022/11/22 09:32:00;;;;;;;17.40;8.90;;;12.50;77.10;;;;;;4387597;28;659532;-65
2022/11/22 09:34:47;;;;;;;30.60;13.33;;;12.70;77.10;;;;;;4400743;28;659911;-64
2022/11/22 09:37:34;;;;;;;20.70;11.30;;;12.80;74.00;;;;;;4395661;28;661051;-65
2022/11/22 09:40:21;;;;;;;14.53;8.80;;;13.40;73.50;;;;;;4372927;28;661878;-65
2022/11/22 09:43:13;;;;;;;16.50;9.70;;;13.80;68.80;;;;;;4396926;28;660248;-65
2022/11/22 09:46:24;;;;;;;14.57;8.47;;;14.40;68.20;;;;;;4358575;28;659699;-67
2022/11/22 09:49:20;;;;;;;18.97;10.37;;;14.70;64.00;;;;;;4350735;28;659769;-65
2022/11/22 09:52:09;;;;;;;16.40;9.30;;;14.20;61.80;;;;;;4349822;28;661020;-65
2022/11/22 09:54:57;;;;;;;15.80;9.67;;;14.40;62.70;;;;;;4377066;28;659384;-65
2022/11/22 09:57:45;;;;;;;14.00;8.27;;;14.50;62.00;;;;;;4401914;28;660014;-65
2022/11/22 10:00:32;;;;;;;10.33;6.83;;;14.60;59.90;;;;;;4387219;28;661255;-65
2022/11/22 10:03:24;;;;;;;16.70;8.57;;;14.50;59.40;;;;;;4409567;28;659461;-66
2022/11/22 10:06:14;;;;;;;13.50;8.07;;;13.50;60.50;;;;;;4389159;28;660698;-65
2022/11/22 10:09:07;;;;;;;13.43;8.03;;;13.60;61.00;;;;;;4392461;28;659595;-65
2022/11/22 10:11:55;;;;;;;15.13;9.03;;;13.60;60.50;;;;;;4388935;28;660251;-64
2022/11/22 10:14:45;;;;;;;15.57;9.10;;;13.40;60.40;;;;;;4392355;28;661100;-64
2022/11/22 10:17:39;;;;;;;21.57;10.97;;;13.50;61.00;;;;;;4385150;28;660667;-65
2022/11/22 10:20:29;;;;;;;17.87;9.73;;;14.00;61.80;;;;;;4386293;28;660931;-65
2022/11/22 10:23:18;;;;;;;22.57;12.23;;;14.30;59.30;;;;;;4392296;28;659242;-65
2022/11/22 10:26:11;;;;;;;22.27;11.60;;;14.70;58.40;;;;;;4391165;28;662216;-65
2022/11/22 10:29:06;;;;;;;13.63;7.50;;;14.50;58.20;;;;;;4386835;28;661271;-65
2022/11/22 10:31:57;;;;;;;10.73;6.93;;;15.00;56.40;;;;;;4388002;28;659993;-65
2022/11/22 10:34:53;;;;;;;13.87;8.30;;;14.90;55.00;;;;;;4387789;28;659837;-65
2022/11/22 10:37:45;;;;;;;13.63;8.83;;;15.40;57.20;;;;;;4369332;28;660455;-66
2022/11/22 10:40:36;;;;;;;13.10;8.33;;;15.20;54.50;;;;;;4392038;28;661311;-65
2022/11/22 10:43:28;;;;;;;13.40;7.47;;;15.90;55.00;;;;;;4389159;28;661380;-64
2022/11/22 10:46:18;;;;;;;14.60;7.73;;;16.60;53.60;;;;;;4370546;28;659416;-65
2022/11/22 10:49:07;;;;;;;14.75;8.82;;;16.70;53.00;;;;;;4394363;28;659857;-66
2022/11/22 10:51:57;;;;;;;14.73;9.27;;;16.70;51.90;;;;;;4412351;28;660008;-64
2022/11/22 10:54:49;;;;;;;17.85;9.18;;;17.00;51.70;;;;;;4389243;28;660255;-64
2022/11/22 10:57:37;;;;;;;12.95;8.60;;;17.40;50.50;;;;;;4390165;28;659989;-65
2022/11/22 11:00:25;;;;;;;13.70;9.00;;;17.40;49.50;;;;;;4470151;28;661502;-64
2022/11/22 11:03:22;;;;;;;15.68;9.10;;;17.10;52.20;;;;;;4807297;28;536895;-65
2022/11/22 11:06:12;;;;;;;14.68;9.15;;;17.60;49.70;;;;;;4389851;28;659787;-64
2022/11/22 11:09:02;;;;;;;15.00;10.02;;;17.70;49.10;;;;;;4413304;28;659561;-66
2022/11/22 11:11:51;;;;;;;14.20;9.15;;;17.50;48.70;;;;;;4411393;28;660812;-64
2022/11/22 11:14:39;;;;;;;14.98;9.27;;;17.40;48.40;;;;;;4389991;28;660499;-64
2022/11/22 11:17:28;;;;;;;16.05;9.38;;;17.00;50.00;;;;;;4394166;28;659909;-64
2022/11/22 11:20:19;;;;;;;13.43;8.75;;;17.20;49.30;;;;;;4393842;28;659862;-65
2022/11/22 11:23:07;;;;;;;14.97;9.00;;;17.40;46.80;;;;;;4390398;28;659700;-64
2022/11/22 11:25:55;;;;;;;13.73;9.20;;;16.90;47.90;;;;;;4408300;28;660031;-65
2022/11/22 11:28:44;;;;;;;13.27;9.23;;;16.70;47.60;;;;;;4412859;28;661125;-64
2022/11/22 11:31:41;;;;;;;11.82;7.85;;;16.90;47.50;;;;;;4393975;28;660642;-65
2022/11/22 11:34:29;;;;;;;14.80;7.75;;;16.60;47.80;;;;;;4389358;28;660418;-64
2022/11/22 11:37:23;;;;;;;12.88;7.88;;;16.40;47.70;;;;;;4393694;28;659538;-65
2022/11/22 11:40:27;;;;;;;17.55;8.32;;;16.80;47.90;;;;;;4370721;28;660766;-65
2022/11/22 11:43:20;;;;;;;12.95;8.40;;;17.20;46.80;;;;;;4389456;28;659781;-64
2022/11/22 11:46:15;;;;;;;27.58;12.50;;;17.30;45.70;;;;;;4366707;28;662061;-64
2022/11/22 11:49:09;;;;;;;15.02;9.55;;;16.90;47.90;;;;;;4364742;28;661777;-64
2022/11/22 11:51:56;;;;;;;19.45;10.90;;;17.20;46.70;;;;;;4359227;28;661453;-64
2022/11/22 11:54:44;;;;;;;14.20;10.18;;;17.50;46.80;;;;;;4410107;28;661161;-64
2022/11/22 11:57:33;;;;;;;22.48;11.93;;;17.50;45.80;;;;;;4387930;28;661062;-64
2022/11/22 12:00:23;;;;;;;17.48;10.15;;;17.30;46.60;;;;;;4392074;28;660763;-65
2022/11/22 12:03:14;;;;;;;18.60;10.40;;;16.90;47.10;;;;;;4392225;28;660844;-65
2022/11/22 12:06:11;;;;;;;17.90;10.55;;;17.30;46.80;;;;;;4391564;28;660758;-64
2022/11/22 12:08:59;;;;;;;16.98;10.73;;;16.90;47.60;;;;;;4381269;28;661420;-64
2022/11/22 12:11:47;;;;;;;16.60;10.00;;;16.40;46.90;;;;;;4387487;28;661355;-64
2022/11/22 12:14:34;;;;;;;15.95;9.85;;;17.20;47.90;;;;;;4411261;28;660606;-64
2022/11/22 12:17:23;;;;;;;16.08;9.75;;;17.40;46.10;;;;;;4393562;28;659810;-64
2022/11/22 12:20:14;;;;;;;15.10;10.40;;;18.40;45.30;;;;;;4393328;28;659688;-65
2022/11/22 12:23:08;;;;;;;16.60;10.70;;;18.50;45.40;;;;;;4381738;28;660533;-64
2022/11/22 12:25:55;;;;;;;17.30;10.70;;;17.00;44.20;;;;;;4381798;28;660958;-66
2022/11/22 12:28:42;;;;;;;17.93;10.83;;;17.90;46.50;;;;;;4415014;28;661488;-64
2022/11/22 12:31:30;;;;;;;18.27;11.13;;;18.30;45.10;;;;;;4411004;28;661580;-64
2022/11/22 12:34:20;;;;;;;17.37;10.97;;;17.90;45.00;;;;;;4387127;28;662017;-64
2022/11/22 12:37:12;;;;;;;19.67;10.93;;;18.70;45.00;;;;;;4391457;28;661131;-64
2022/11/22 12:40:02;;;;;;;19.53;10.87;;;19.20;44.00;;;;;;4387745;28;660974;-63
2022/11/22 12:42:51;;;;;;;19.00;11.63;;;18.70;43.00;;;;;;4387672;28;660484;-63
2022/11/22 12:45:39;;;;;;;21.43;11.93;;;18.50;44.20;;;;;;4387804;28;662394;-64
2022/11/22 12:48:28;;;;;;;20.93;11.77;;;18.70;44.70;;;;;;4391611;28;661234;-64
2022/11/22 12:51:18;;;;;;;20.13;12.37;;;16.90;44.40;;;;;;4395852;28;660636;-65
2022/11/22 12:54:10;;;;;;;20.77;12.30;;;14.10;48.60;;;;;;4391109;28;662149;-65
2022/11/22 12:56:59;;;;;;;22.53;12.37;;;12.60;53.50;;;;;;4386471;28;662131;-63
2022/11/22 12:59:49;;;;;;;25.80;14.03;;;11.60;56.50;;;;;;4374090;28;660574;-64
2022/11/22 13:02:38;;;;;;;30.10;14.30;;;10.50;59.30;;;;;;4374405;28;660827;-64
2022/11/22 13:05:26;;;;;;;23.37;13.20;;;9.80;64.20;;;;;;4374129;28;661423;-64
2022/11/22 13:08:15;;;;;;;31.33;15.13;;;9.20;67.90;;;;;;4393940;28;659828;-64
2022/11/22 13:11:06;;;;;;;39.30;17.50;;;8.80;71.80;;;;;;4375497;28;661194;-64
2022/11/22 13:13:54;;;;;;;31.50;15.90;;;8.20;75.70;;;;;;4371378;28;661586;-63
2022/11/22 13:16:41;;;;;;;45.97;19.53;;;7.70;82.40;;;;;;4375507;28;659775;-63
2022/11/22 13:19:28;;;;;;;30.30;16.53;;;7.30;92.30;;;;;;4393966;28;660159;-63
2022/11/22 13:22:16;;;;;;;39.35;18.40;;;7.00;96.10;;;;;;4370643;28;659716;-64
2022/11/22 13:25:21;;;;;;;40.33;18.20;;;6.80;99.50;;;;;;4394242;28;660156;-63
2022/11/22 13:28:11;;;;;;;32.83;16.00;;;6.60;99.90;;;;;;4371407;28;659955;-63
2022/11/22 13:31:14;;;;;;;36.63;17.87;;;6.40;99.90;;;;;;4373272;28;659711;-63
2022/11/22 13:34:01;;;;;;;33.53;16.93;;;6.20;99.90;;;;;;4371957;28;660573;-63
2022/11/22 13:36:48;;;;;;;37.43;18.27;;;5.90;99.90;;;;;;4396941;28;659956;-63
2022/11/22 13:39:36;;;;;;;45.50;20.93;;;5.80;99.90;;;;;;4378472;28;660161;-63
2022/11/22 13:42:25;;;;;;;55.50;25.40;;;5.50;99.90;;;;;;4396586;28;660248;-63
2022/11/22 13:45:23;;;;;;;77.53;32.43;;;5.40;99.90;;;;;;4374377;28;660732;-63
2022/11/22 13:48:10;;;;;;;69.83;29.60;;;5.30;99.90;;;;;;4359880;28;659850;-64
2022/11/22 13:50:59;;;;;;;61.83;28.80;;;5.30;99.90;;;;;;4401213;28;661124;-63
2022/11/22 13:53:46;;;;;;;60.57;27.60;;;5.10;99.90;;;;;;4374891;28;659450;-63
2022/11/22 13:56:49;;;;;;;62.90;30.27;;;5.00;99.90;;;;;;4396790;28;659640;-63
2022/11/22 13:59:36;;;;;;;53.63;26.50;;;5.00;99.90;;;;;;4376729;28;659762;-63
2022/11/22 14:02:25;;;;;;;64.43;29.13;;;5.00;99.90;;;;;;4397283;28;660696;-63
2022/11/22 14:05:17;;;;;;;62.50;26.27;;;5.00;99.90;;;;;;4377114;28;660653;-63
2022/11/22 14:08:05;;;;;;;49.43;21.43;;;5.00;99.90;;;;;;4373083;28;659738;-63
2022/11/22 14:11:02;;;;;;;48.20;22.47;;;5.00;99.90;;;;;;4372387;28;661322;-63
2022/11/22 14:13:52;;;;;;;49.27;22.70;;;4.80;99.90;;;;;;4368485;28;660488;-64
2022/11/22 14:16:50;;;;;;;50.43;20.83;;;4.80;99.90;;;;;;4395554;28;659908;-62
2022/11/22 14:19:47;;;;;;;44.90;20.07;;;4.80;99.90;;;;;;4377114;28;660007;-63
2022/11/22 14:22:44;;;;;;;55.07;24.30;;;4.70;99.90;;;;;;4372376;28;659805;-63
2022/11/22 14:25:41;;;;;;;48.13;22.23;;;4.70;99.90;;;;;;4372355;28;660601;-63
2022/11/22 14:28:52;;;;;;;44.17;19.93;;;4.60;99.90;;;;;;4372260;28;659833;-63
2022/11/22 14:31:39;;;;;;;38.90;18.87;;;4.50;99.90;;;;;;4372199;28;659687;-62